Time;durP1;ratioP1;P1;durP2;ratioP2;P2;SDS_P1;SDS_P2;PMS_P1;PMS_P2;Temp;Humidity;BMP_temperature;BMP_pressure;BME280_temperature;BME280_humidity;BME280_pressure;Samples;Min_cycle;Max_cycle;Signal;HPM_P1;HPM_P2
2021/11/19 00:02:16;;;;;;;;;43.75;32.75;;;;;8.45;74.38;102519.84;5077736;28;45554;-61
2021/11/19 00:04:42;;;;;;;;;41.75;31.25;;;;;8.45;74.21;102510.25;5077607;28;45352;-61
2021/11/19 00:07:07;;;;;;;;;50.50;36.50;;;;;8.49;74.06;102515.34;5077747;28;45392;-61
2021/11/19 00:09:33;;;;;;;;;45.75;32.25;;;;;8.50;74.08;102517.91;5077216;28;56132;-62
2021/11/19 00:11:58;;;;;;;;;45.00;34.25;;;;;8.52;73.97;102520.44;5059534;28;45335;-61
2021/11/19 00:14:24;;;;;;;;;39.25;33.00;;;;;8.52;73.95;102523.06;5058660;28;64967;-61
2021/11/19 00:16:55;;;;;;;;;37.25;32.00;;;;;8.52;73.98;102521.31;5077644;28;45365;-61
2021/11/19 00:19:20;;;;;;;;;49.00;33.75;;;;;8.51;73.75;102514.38;5059406;28;45255;-61
2021/11/19 00:21:46;;;;;;;;;37.75;30.25;;;;;8.53;73.77;102509.03;5077643;28;45299;-61
2021/11/19 00:24:11;;;;;;;;;53.75;39.25;;;;;8.51;73.69;102508.25;5076215;28;70397;-61
2021/11/19 00:26:39;;;;;;;;;42.75;32.25;;;;;8.51;73.75;102508.25;5077229;28;45390;-62
2021/11/19 00:29:04;;;;;;;;;38.75;31.00;;;;;8.53;73.91;102504.66;5077431;28;45327;-62
2021/11/19 00:31:30;;;;;;;;;44.25;34.50;;;;;8.52;73.84;102504.72;5077505;28;45359;-61
2021/11/19 00:33:55;;;;;;;;;49.50;35.00;;;;;8.52;73.80;102500.34;5058573;28;56972;-61
2021/11/19 00:36:21;;;;;;;;;44.75;33.00;;;;;8.53;73.63;102506.41;5059008;28;45473;-62
2021/11/19 00:38:47;;;;;;;;;40.25;33.00;;;;;8.53;73.73;102498.56;5077180;28;45363;-61
2021/11/19 00:41:13;;;;;;;;;41.75;33.00;;;;;8.55;73.68;102499.31;5076991;28;45414;-62
2021/11/19 00:43:38;;;;;;;;;37.50;28.75;;;;;8.56;73.72;102501.03;5058850;28;46384;-62
2021/11/19 00:46:04;;;;;;;;;41.50;32.75;;;;;8.56;73.62;102501.03;5041932;28;45429;-62
2021/11/19 00:48:31;;;;;;;;;36.75;31.25;;;;;8.56;73.29;102499.28;5075965;28;45312;-62
2021/11/19 00:51:06;;;;;;;;;46.75;34.00;;;;;8.56;73.43;102495.78;5076623;28;45234;-62
2021/11/19 00:53:31;;;;;;;;;44.00;31.25;;;;;8.54;73.44;102492.38;5076835;28;46430;-62
2021/11/19 00:55:57;;;;;;;;;41.25;32.75;;;;;8.54;73.36;102497.63;5058751;28;45432;-62
2021/11/19 00:58:22;;;;;;;;;41.75;33.00;;;;;8.53;73.59;102496.78;5058782;28;45270;-61
2021/11/19 01:00:57;;;;;;;;;35.25;30.00;;;;;8.53;73.54;102494.19;5075992;28;68154;-61
2021/11/19 01:03:23;;;;;;;;;38.00;29.00;;;;;8.54;73.46;102488.00;5058698;28;46657;-62
2021/11/19 01:05:48;;;;;;;;;35.75;30.25;;;;;8.55;73.32;102494.09;5076842;28;45259;-61
2021/11/19 01:08:14;;;;;;;;;45.75;33.00;;;;;8.56;73.49;102491.41;5058699;28;45286;-61
2021/11/19 01:10:39;;;;;;;;;40.25;32.75;;;;;8.57;73.52;102492.25;5076038;28;65268;-61
2021/11/19 01:13:05;;;;;;;;;44.00;32.50;;;;;8.60;73.50;102494.72;5058552;28;45499;-61
2021/11/19 01:15:37;;;;;;;;;41.25;29.75;;;;;8.60;73.30;102484.22;5076472;28;46671;-61
2021/11/19 01:18:05;;;;;;;;;37.00;28.75;;;;;8.58;73.35;102484.31;5058586;28;45445;-61
2021/11/19 01:20:47;;;;;;;;;36.50;31.00;;;;;8.58;73.24;102478.22;5076552;28;45277;-62
2021/11/19 01:29:56;;;;;;;;;42.50;32.50;;;;;8.59;73.45;102472.06;5076656;28;45344;-62
2021/11/19 01:32:24;;;;;;;;;39.75;29.00;;;;;8.60;73.39;102472.00;5058457;28;45566;-61
2021/11/19 01:34:50;;;;;;;;;33.50;30.00;;;;;8.61;73.42;102473.69;5057919;28;45488;-62
2021/11/19 01:37:15;;;;;;;;;42.25;32.00;;;;;8.63;73.50;102467.53;5076347;28;45313;-62
2021/11/19 01:39:41;;;;;;;;;46.50;32.75;;;;;8.64;73.49;102472.69;5075586;28;62598;-61
2021/11/19 01:42:12;;;;;;;;;38.00;33.00;;;;;8.65;73.28;102482.25;5076251;28;45281;-61
2021/11/19 01:44:41;;;;;;;;;39.25;31.50;;;;;8.67;73.32;102475.16;5058548;28;46379;-62
2021/11/19 01:47:08;;;;;;;;;33.00;27.25;;;;;8.68;73.38;102476.84;5076213;28;45766;-61
2021/11/19 01:49:34;;;;;;;;;42.00;33.00;;;;;8.72;73.13;102478.41;5076446;28;45374;-61
2021/11/19 01:52:26;;;;;;;;;40.50;33.00;;;;;8.74;73.22;102478.34;5074177;28;67720;-62
2021/11/19 01:54:54;;;;;;;;;40.50;32.00;;;;;8.73;73.04;102472.22;5076037;28;48093;-62
2021/11/19 01:57:30;;;;;;;;;46.25;34.25;;;;;8.73;73.20;102471.41;5075871;28;45324;-62
2021/11/19 02:00:17;;;;;;;;;36.50;31.75;;;;;8.72;73.00;102478.41;5058187;28;45443;-61
2021/11/19 02:02:45;;;;;;;;;34.75;23.75;;;;;8.72;72.91;102473.16;5060869;28;45346;-61
2021/11/19 02:06:00;;;;;;;;;37.50;31.25;;;;;8.72;73.31;102470.53;5061356;28;46278;-61
2021/11/19 02:08:27;;;;;;;;;40.00;30.50;;;;;8.72;73.14;102475.78;4980847;28;45450;-62
2021/11/19 02:11:11;;;;;;;;;42.25;32.25;;;;;8.74;73.20;102468.69;4981005;28;45305;-61
2021/11/19 02:14:21;;;;;;;;;37.75;29.25;;;;;8.75;73.24;102467.75;5052309;28;45343;-61
2021/11/19 02:16:49;;;;;;;;;41.00;31.50;;;;;8.75;73.21;102466.91;5047643;28;45448;-62
2021/11/19 02:19:21;;;;;;;;;44.25;33.50;;;;;8.75;73.06;102465.13;5061546;28;46188;-61
2021/11/19 02:21:49;;;;;;;;;39.75;32.00;;;;;8.78;73.21;102463.28;5061700;28;45407;-61
2021/11/19 02:24:24;;;;;;;;;47.00;33.25;;;;;8.78;73.09;102463.28;5061265;28;45347;-62
2021/11/19 02:26:57;;;;;;;;;49.75;36.00;;;;;8.78;73.25;102468.53;5061810;28;46228;-62
2021/11/19 02:29:23;;;;;;;;;39.25;30.25;;;;;8.80;73.29;102471.94;5061744;28;45333;-62
2021/11/19 02:31:51;;;;;;;;;37.75;27.75;;;;;8.81;73.19;102469.22;5061239;28;45362;-61
2021/11/19 02:34:16;;;;;;;;;43.75;33.00;;;;;8.83;73.02;102467.38;5060933;28;45264;-62
2021/11/19 02:36:43;;;;;;;;;39.50;34.00;;;;;8.85;72.83;102469.94;5044115;28;46234;-62
2021/11/19 02:39:13;;;;;;;;;40.25;33.25;;;;;8.86;72.94;102467.22;5060693;28;45442;-61
2021/11/19 02:41:45;;;;;;;;;47.75;33.25;;;;;8.88;72.73;102468.00;5079118;28;45464;-62
2021/11/19 02:44:11;;;;;;;;;37.50;28.75;;;;;8.88;72.95;102467.16;5062085;28;45336;-62
2021/11/19 02:46:42;;;;;;;;;41.25;32.00;;;;;8.90;72.77;102471.38;5060909;28;46436;-62
2021/11/19 02:49:07;;;;;;;;;39.00;31.00;;;;;8.93;72.97;102466.91;5060887;28;45526;-62
2021/11/19 02:51:36;;;;;;;;;49.25;31.25;;;;;8.93;72.91;102469.53;5060148;28;62229;-61
2021/11/19 02:54:03;;;;;;;;;44.75;34.50;;;;;8.92;73.01;102471.31;5078827;28;45421;-62
2021/11/19 02:56:29;;;;;;;;;50.75;35.00;;;;;8.94;72.92;102472.09;5043954;28;46460;-61
2021/11/19 02:58:55;;;;;;;;;35.25;30.75;;;;;8.95;72.88;102467.69;5059789;28;64222;-62
2021/11/19 03:01:28;;;;;;;;;44.75;35.50;;;;;8.97;72.73;102463.22;5060846;28;45443;-62
2021/11/19 03:04:29;;;;;;;;;44.00;32.25;;;;;8.99;72.74;102471.84;5078637;28;45376;-61
2021/11/19 03:06:56;;;;;;;;;42.50;35.00;;;;;9.00;72.65;102471.78;5078329;28;47670;-62
2021/11/19 03:09:24;;;;;;;;;35.50;26.50;;;;;9.01;72.69;102468.22;5043631;28;45389;-61
2021/11/19 03:11:49;;;;;;;;;39.25;32.00;;;;;9.03;72.44;102455.88;5077326;28;45476;-62
2021/11/19 03:14:15;;;;;;;;;39.25;30.50;;;;;9.02;72.52;102456.78;5043586;28;45483;-61
2021/11/19 03:16:40;;;;;;;;;42.25;32.25;;;;;9.02;72.35;102455.97;5060294;28;45327;-62
2021/11/19 03:19:06;;;;;;;;;47.75;35.00;;;;;9.01;72.53;102454.25;5078306;28;45500;-61
2021/11/19 03:21:32;;;;;;;;;43.00;31.25;;;;;9.00;72.51;102452.56;5078468;28;45366;-61
2021/11/19 03:23:57;;;;;;;;;39.25;29.00;;;;;9.01;72.45;102449.84;5078319;28;45434;-61
2021/11/19 03:26:24;;;;;;;;;41.00;30.75;;;;;9.01;72.45;102444.59;5077304;28;70739;-62
2021/11/19 03:28:49;;;;;;;;;43.25;30.00;;;;;9.03;72.36;102440.13;5060300;28;45852;-62
2021/11/19 03:31:15;;;;;;;;;29.25;25.75;;;;;9.00;72.21;102435.06;5060004;28;48290;-62
2021/11/19 03:33:43;;;;;;;;;35.50;28.25;;;;;9.03;72.24;102440.13;5060236;28;45558;-62
2021/11/19 03:36:09;;;;;;;;;38.50;31.50;;;;;9.03;72.14;102437.50;5026489;28;47135;-61
2021/11/19 03:38:36;;;;;;;;;37.00;30.25;;;;;9.03;72.47;102427.03;5078058;28;45426;-62
2021/11/19 03:41:02;;;;;;;;;39.75;30.25;;;;;9.02;72.17;102434.97;5056498;28;45415;-61
2021/11/19 03:43:31;;;;;;;;;42.00;31.25;;;;;9.02;72.04;102440.22;5057669;28;45461;-62
2021/11/19 03:46:00;;;;;;;;;39.25;29.75;;;;;9.02;72.47;102432.34;5057534;28;46451;-61
2021/11/19 03:48:25;;;;;;;;;40.25;31.50;;;;;9.03;72.12;102437.50;5056688;28;45260;-61
2021/11/19 03:51:12;;;;;;;;;36.75;30.75;;;;;9.03;72.21;102437.50;5056826;28;69441;-62
2021/11/19 03:53:38;;;;;;;;;37.00;27.75;;;;;9.03;72.11;102437.50;5023091;28;45679;-62
2021/11/19 03:56:03;;;;;;;;;33.00;26.50;;;;;9.04;72.09;102441.84;5057185;28;58657;-62
2021/11/19 03:58:30;;;;;;;;;36.25;31.00;;;;;9.05;72.07;102443.53;5057565;28;45269;-61
2021/11/19 04:00:59;;;;;;;;;35.75;28.75;;;;;9.06;72.11;102439.97;5057773;28;45440;-61
2021/11/19 04:03:24;;;;;;;;;35.50;30.25;;;;;9.08;71.89;102441.69;5057447;28;45554;-62
2021/11/19 04:05:50;;;;;;;;;33.75;29.00;;;;;9.06;72.05;102439.97;5057408;28;46116;-61
2021/11/19 04:08:15;;;;;;;;;33.75;29.50;;;;;9.09;71.99;102446.00;5056480;28;65798;-61
2021/11/19 04:10:41;;;;;;;;;41.25;29.00;;;;;9.08;71.99;102445.16;5057092;28;48160;-62
2021/11/19 04:13:06;;;;;;;;;39.25;30.75;;;;;9.08;72.10;102446.91;5057553;28;45221;-61
2021/11/19 04:15:35;;;;;;;;;30.50;27.75;;;;;9.08;72.18;102449.53;5039122;28;47330;-61
2021/11/19 04:18:00;;;;;;;;;37.50;29.50;;;;;9.08;71.91;102450.41;5039338;28;45382;-61
2021/11/19 04:20:26;;;;;;;;;35.00;30.25;;;;;9.08;71.96;102449.53;5057322;28;45293;-61
2021/11/19 04:22:51;;;;;;;;;36.50;29.00;;;;;9.09;71.85;102452.09;5055896;28;45630;-61
2021/11/19 04:25:18;;;;;;;;;35.25;29.00;;;;;9.08;72.18;102449.53;5038500;28;45998;-62
2021/11/19 04:27:43;;;;;;;;;36.25;30.25;;;;;9.07;72.07;102443.47;5056965;28;45450;-61
2021/11/19 04:30:11;;;;;;;;;33.75;31.50;;;;;9.08;71.98;102454.78;5056188;28;62927;-61
2021/11/19 04:32:36;;;;;;;;;38.75;28.50;;;;;9.10;72.08;102442.44;5055851;28;45641;-62
2021/11/19 04:35:03;;;;;;;;;33.50;28.75;;;;;9.09;72.16;102443.38;5055652;28;45291;-61
2021/11/19 04:37:28;;;;;;;;;30.75;24.50;;;;;9.09;72.16;102440.75;5055724;28;45451;-62
2021/11/19 04:39:53;;;;;;;;;35.75;30.00;;;;;9.09;71.86;102452.09;5038397;28;57916;-61
2021/11/19 04:42:19;;;;;;;;;35.75;30.00;;;;;9.11;71.97;102444.13;5056884;28;45223;-61
2021/11/19 04:44:44;;;;;;;;;31.75;25.00;;;;;9.11;71.95;102441.50;5056388;28;46506;-62
2021/11/19 04:47:10;;;;;;;;;36.00;30.75;;;;;9.11;72.00;102438.91;5056613;28;45325;-61
2021/11/19 04:49:35;;;;;;;;;33.00;26.50;;;;;9.12;71.92;102443.22;5038069;28;63403;-61
2021/11/19 04:52:02;;;;;;;;;31.75;29.25;;;;;9.12;72.01;102430.97;5038945;28;45245;-62
2021/11/19 04:54:28;;;;;;;;;39.00;30.25;;;;;9.14;71.99;102438.75;5056122;28;46305;-61
2021/11/19 04:56:53;;;;;;;;;34.50;27.25;;;;;9.14;71.99;102438.75;5055796;28;65930;-62
2021/11/19 04:59:20;;;;;;;;;37.50;28.00;;;;;9.14;71.97;102443.97;5038836;28;45435;-62
2021/11/19 05:01:48;;;;;;;;;31.50;25.75;;;;;9.12;71.79;102437.97;5056521;28;45321;-61
2021/11/19 05:04:13;;;;;;;;;38.00;29.25;;;;;9.11;71.73;102436.28;5056512;28;45374;-62
2021/11/19 05:06:39;;;;;;;;;36.00;28.50;;;;;9.11;71.66;102438.91;5056531;28;45297;-62
2021/11/19 05:09:05;;;;;;;;;31.50;29.00;;;;;9.10;71.75;102437.19;5055768;28;67599;-61
2021/11/19 05:11:34;;;;;;;;;32.25;27.25;;;;;9.09;71.76;102435.50;5038669;28;45405;-62
2021/11/19 05:14:02;;;;;;;;;35.75;27.25;;;;;9.08;72.06;102441.69;5056296;28;45320;-62
2021/11/19 05:16:27;;;;;;;;;36.00;29.75;;;;;9.10;71.82;102431.94;5056323;28;45817;-61
2021/11/19 05:18:52;;;;;;;;;31.75;27.75;;;;;9.09;71.97;102427.63;5038241;28;51306;-62
2021/11/19 05:21:19;;;;;;;;;40.75;32.75;;;;;9.07;71.66;102430.34;5055744;28;61261;-62
2021/11/19 05:23:44;;;;;;;;;42.25;29.25;;;;;9.06;71.84;102434.72;5055973;28;46571;-62
2021/11/19 05:26:10;;;;;;;;;35.00;29.75;;;;;9.06;71.95;102424.25;5056171;28;45367;-61
2021/11/19 05:28:35;;;;;;;;;35.50;29.50;;;;;9.06;71.77;102428.66;5021730;28;45397;-61
2021/11/19 05:31:01;;;;;;;;;32.00;29.00;;;;;9.06;71.95;102433.91;5021262;28;45488;-61
2021/11/19 05:33:27;;;;;;;;;37.50;29.00;;;;;9.06;71.84;102432.09;5055970;28;46393;-61
2021/11/19 05:35:53;;;;;;;;;29.75;24.75;;;;;9.06;71.85;102437.34;5056244;28;45368;-61
2021/11/19 05:38:19;;;;;;;;;36.25;29.25;;;;;9.05;72.04;102435.66;5058989;28;58813;-61
2021/11/19 05:40:45;;;;;;;;;34.75;26.00;;;;;9.06;71.95;102439.97;5056356;28;45517;-61
2021/11/19 05:43:10;;;;;;;;;33.00;28.00;;;;;9.05;71.78;102440.06;5061604;28;46688;-62
2021/11/19 05:45:35;;;;;;;;;31.75;26.00;;;;;9.06;71.57;102437.34;5079046;28;66673;-61
2021/11/19 05:48:01;;;;;;;;;33.50;29.25;;;;;9.05;71.64;102438.28;5060991;28;61435;-62
2021/11/19 05:50:30;;;;;;;;;31.25;26.25;;;;;9.03;72.05;102445.38;5079758;28;45324;-61
2021/11/19 05:52:57;;;;;;;;;42.50;29.75;;;;;9.03;71.67;102447.16;5061637;28;45463;-62
2021/11/19 05:55:23;;;;;;;;;33.50;31.50;;;;;9.02;71.84;102448.94;5061976;28;45506;-61
2021/11/19 05:57:49;;;;;;;;;31.75;27.50;;;;;9.01;71.77;102449.84;5079904;28;45428;-61
2021/11/19 06:00:20;;;;;;;;;37.00;29.75;;;;;9.02;71.69;102455.97;5079156;28;54442;-62
2021/11/19 06:02:46;;;;;;;;;37.50;27.25;;;;;9.02;71.93;102451.53;5079345;28;45474;-61
2021/11/19 06:05:12;;;;;;;;;36.75;30.25;;;;;9.01;71.81;102452.47;5061523;28;45772;-61
2021/11/19 06:07:37;;;;;;;;;31.25;26.25;;;;;9.00;71.60;102449.94;5079024;28;60227;-61
2021/11/19 06:10:04;;;;;;;;;34.25;26.50;;;;;8.99;71.86;102451.75;5078856;28;62018;-61
2021/11/19 06:12:34;;;;;;;;;37.50;29.25;;;;;8.98;72.10;102450.03;5079277;28;45553;-62
2021/11/19 06:15:10;;;;;;;;;37.00;24.50;;;;;8.98;72.05;102451.78;5077119;28;45268;-61
2021/11/19 06:17:38;;;;;;;;;32.25;28.50;;;;;8.99;72.18;102453.50;5062687;28;45411;-61
2021/11/19 06:20:11;;;;;;;;;34.25;30.00;;;;;9.00;71.96;102449.94;5061396;28;45387;-61
2021/11/19 06:22:38;;;;;;;;;42.75;34.50;;;;;9.00;72.16;102448.19;5060952;28;46753;-61
2021/11/19 06:25:05;;;;;;;;;32.50;27.25;;;;;9.00;72.30;102445.56;5061068;28;45357;-61
2021/11/19 06:27:32;;;;;;;;;35.50;26.00;;;;;9.02;72.17;102446.31;5061384;28;45281;-62
2021/11/19 06:29:58;;;;;;;;;41.75;30.00;;;;;9.03;72.25;102445.38;5060784;28;45252;-61
2021/11/19 06:32:23;;;;;;;;;33.75;27.25;;;;;9.05;71.90;102453.19;5078707;28;46248;-61
2021/11/19 06:34:49;;;;;;;;;47.25;37.75;;;;;9.02;72.33;102446.31;5060832;28;49224;-62
2021/11/19 06:37:14;;;;;;;;;33.50;26.00;;;;;9.04;71.56;102449.69;5079032;28;45243;-62
2021/11/19 06:39:42;;;;;;;;;33.25;26.75;;;;;9.05;71.70;102461.88;5078801;28;45297;-61
2021/11/19 06:42:09;;;;;;;;;35.75;31.00;;;;;9.05;71.83;102458.44;5079139;28;46493;-61
2021/11/19 06:44:34;;;;;;;;;31.25;24.75;;;;;9.05;71.80;102456.63;5078811;28;45378;-62
2021/11/19 06:47:00;;;;;;;;;37.50;30.50;;;;;9.06;72.14;102462.75;5060085;28;45357;-62
2021/11/19 06:49:25;;;;;;;;;31.50;27.75;;;;;9.05;72.25;102461.88;5078527;28;51463;-62
2021/11/19 06:51:50;;;;;;;;;30.25;26.75;;;;;9.05;71.98;102461.88;5060551;28;45407;-62
2021/11/19 06:54:16;;;;;;;;;31.25;25.75;;;;;9.07;72.21;102461.81;5078649;28;45928;-62
2021/11/19 06:56:41;;;;;;;;;32.50;30.25;;;;;9.08;71.59;102466.13;5078977;28;45778;-62
2021/11/19 06:59:07;;;;;;;;;35.50;30.25;;;;;9.09;72.08;102462.59;5079022;28;45580;-62
2021/11/19 07:01:32;;;;;;;;;30.00;27.25;;;;;9.09;71.92;102466.97;5078837;28;46598;-61
2021/11/19 07:03:58;;;;;;;;;33.00;29.25;;;;;9.08;71.89;102466.13;5042831;28;68642;-61
2021/11/19 07:06:24;;;;;;;;;44.00;32.00;;;;;9.09;72.16;102474.84;5078807;28;45482;-61
2021/11/19 07:08:49;;;;;;;;;35.00;27.75;;;;;9.11;71.88;102473.00;5078547;28;45430;-61
2021/11/19 07:11:17;;;;;;;;;39.00;30.25;;;;;9.10;71.85;102480.03;5060325;28;46273;-61
2021/11/19 07:13:43;;;;;;;;;35.25;27.00;;;;;9.10;71.77;102485.25;5078496;28;45315;-61
2021/11/19 07:16:08;;;;;;;;;31.50;27.00;;;;;9.10;71.70;102489.66;5078788;28;45334;-61
2021/11/19 07:18:34;;;;;;;;;31.75;30.25;;;;;9.10;71.82;102479.16;5060005;28;48811;-61
2021/11/19 07:21:00;;;;;;;;;36.75;30.00;;;;;9.11;71.87;102492.22;5043258;28;45273;-61
2021/11/19 07:23:25;;;;;;;;;31.75;27.75;;;;;9.12;71.92;102491.28;5060257;28;45887;-61
2021/11/19 07:25:51;;;;;;;;;40.75;31.00;;;;;9.14;71.76;102486.81;5078314;28;45693;-61
2021/11/19 07:28:17;;;;;;;;;39.75;31.50;;;;;9.15;71.65;102498.13;5060056;28;45228;-61
2021/11/19 07:30:50;;;;;;;;;33.00;30.50;;;;;9.13;71.86;102499.97;5078121;28;46346;-61
2021/11/19 07:33:16;;;;;;;;;30.50;28.25;;;;;9.14;71.89;102501.69;5078231;28;45381;-61
2021/11/19 07:35:42;;;;;;;;;35.50;26.75;;;;;9.14;72.06;102504.31;5060089;28;45496;-62
2021/11/19 07:38:07;;;;;;;;;44.50;32.50;;;;;9.14;71.94;102506.94;5078234;28;45311;-62
2021/11/19 07:40:39;;;;;;;;;35.75;30.00;;;;;9.15;71.72;102511.25;5046277;28;46264;-61
2021/11/19 07:43:05;;;;;;;;;39.00;31.75;;;;;9.14;71.78;102510.41;5057660;28;45477;-62
2021/11/19 07:45:36;;;;;;;;;36.25;31.75;;;;;9.15;71.86;102513.88;5023288;28;45418;-61
2021/11/19 07:48:22;;;;;;;;;39.75;31.75;;;;;9.19;71.70;102518.03;5040501;28;45461;-61
2021/11/19 07:50:49;;;;;;;;;38.00;31.25;;;;;9.20;71.80;102511.88;5057378;28;46409;-61
2021/11/19 07:53:16;;;;;;;;;34.25;28.00;;;;;9.23;71.90;102514.31;5057491;28;45965;-61
2021/11/19 07:55:43;;;;;;;;;35.75;26.75;;;;;9.24;71.80;102520.44;5057666;28;45354;-61
2021/11/19 07:58:08;;;;;;;;;31.75;26.75;;;;;9.22;71.87;102520.50;5057334;28;45379;-61
2021/11/19 08:00:35;;;;;;;;;35.50;30.00;;;;;9.22;71.61;102520.50;5037983;28;64094;-61
2021/11/19 08:03:01;;;;;;;;;34.50;27.25;;;;;9.20;71.89;102515.34;5039555;28;45348;-61
2021/11/19 08:05:26;;;;;;;;;37.25;31.75;;;;;9.23;71.61;102521.38;5056691;28;65561;-61
2021/11/19 08:07:51;;;;;;;;;37.00;27.00;;;;;9.24;71.85;102523.06;5056309;28;69670;-61
2021/11/19 08:10:18;;;;;;;;;37.00;28.50;;;;;9.26;72.01;102527.28;5056666;28;65611;-61
2021/11/19 08:12:43;;;;;;;;;30.25;23.50;;;;;9.27;71.96;102534.25;5057141;28;45849;-62
2021/11/19 08:15:09;;;;;;;;;44.75;33.25;;;;;9.28;71.76;102527.19;5057359;28;45363;-61
2021/11/19 08:17:45;;;;;;;;;45.25;33.50;;;;;9.29;71.64;102532.38;5038592;28;60774;-61
2021/11/19 08:20:14;;;;;;;;;36.50;26.00;;;;;9.30;71.58;102528.84;5057184;28;45303;-62
2021/11/19 08:22:39;;;;;;;;;38.00;31.00;;;;;9.32;71.87;102531.38;5039347;28;45315;-62
2021/11/19 08:25:05;;;;;;;;;44.50;33.25;;;;;9.33;71.71;102533.94;5039208;28;45496;-61
2021/11/19 08:27:34;;;;;;;;;42.75;34.00;;;;;9.34;71.88;102532.13;5057103;28;45344;-61
2021/11/19 08:30:00;;;;;;;;;37.25;31.25;;;;;9.36;71.96;102527.66;5057012;28;45663;-61
2021/11/19 08:32:26;;;;;;;;;34.00;30.50;;;;;9.40;71.62;102536.25;5055733;28;45870;-61
2021/11/19 08:34:52;;;;;;;;;43.50;32.75;;;;;9.43;71.36;102528.22;5056986;28;45502;-62
2021/11/19 08:37:22;;;;;;;;;43.75;33.50;;;;;9.43;71.29;102523.78;5038862;28;45657;-61
2021/11/19 08:39:47;;;;;;;;;36.75;31.75;;;;;9.43;71.34;102526.41;5063420;28;46395;-62
2021/11/19 08:42:13;;;;;;;;;43.75;32.75;;;;;9.46;71.42;102521.00;5077055;28;45377;-62
2021/11/19 08:44:39;;;;;;;;;38.25;31.25;;;;;9.46;71.67;102518.38;5058974;28;45396;-61
2021/11/19 08:47:05;;;;;;;;;39.75;33.50;;;;;9.49;71.56;102523.47;5076806;28;46772;-62
2021/11/19 08:49:33;;;;;;;;;33.75;27.50;;;;;9.52;71.73;102511.13;5065770;27;45474;-62
2021/11/19 08:51:59;;;;;;;;;40.25;32.50;;;;;9.53;71.64;102520.69;5070084;27;45997;-61
2021/11/19 08:54:24;;;;;;;;;40.25;32.75;;;;;9.55;71.52;102527.53;5077774;27;66133;-60
2021/11/19 08:56:56;;;;;;;;;36.75;32.50;;;;;9.56;71.28;102523.16;5057703;27;45427;-61
2021/11/19 08:59:22;;;;;;;;;39.75;34.00;;;;;9.58;71.38;102522.13;5058021;27;46238;-61
2021/11/19 09:01:50;;;;;;;;;43.00;34.75;;;;;9.60;71.18;102522.91;5075350;27;45443;-61
2021/11/19 09:04:16;;;;;;;;;34.50;29.00;;;;;9.62;71.00;102526.31;5075515;27;45422;-61
2021/11/19 09:06:41;;;;;;;;;40.25;32.00;;;;;9.66;70.91;102524.38;5057423;27;45683;-61
2021/11/19 09:09:07;;;;;;;;;37.00;30.75;;;;;9.68;70.99;102532.16;5075131;27;46292;-61
2021/11/19 09:11:33;;;;;;;;;41.75;34.25;;;;;9.71;71.07;102532.88;5056973;27;45368;-61
2021/11/19 09:13:58;;;;;;;;;43.00;35.25;;;;;9.75;70.75;102536.16;5075116;27;45562;-61
2021/11/19 09:16:31;;;;;;;;;42.00;35.25;;;;;9.75;70.98;102531.78;5075098;27;56866;-61
2021/11/19 09:19:19;;;;;;;;;42.50;35.25;;;;;9.77;70.82;102534.31;5057942;27;46723;-62
2021/11/19 09:21:44;;;;;;;;;44.00;36.25;;;;;9.80;70.81;102539.41;5067918;27;45433;-61
2021/11/19 09:24:31;;;;;;;;;45.33;35.33;;;;;9.80;70.69;102537.59;5077405;27;45469;-61
2021/11/19 09:26:58;;;;;;;;;43.75;35.50;;;;;9.83;70.74;102539.22;5079541;27;45498;-61
2021/11/19 09:29:33;;;;;;;;;52.50;38.00;;;;;9.85;71.02;102537.38;5069727;27;46644;-61
2021/11/19 09:31:59;;;;;;;;;47.00;38.25;;;;;9.88;70.75;102547.72;5065115;27;45446;-61
2021/11/19 09:34:26;;;;;;;;;45.50;35.25;;;;;9.91;70.85;102547.56;5057113;27;45591;-61
2021/11/19 09:36:51;;;;;;;;;40.75;35.00;;;;;9.93;71.04;102550.94;5077779;27;45621;-61
2021/11/19 09:39:17;;;;;;;;;49.25;34.75;;;;;9.95;70.50;102549.09;5068525;27;46153;-61
2021/11/19 09:41:49;;;;;;;;;50.00;35.50;;;;;9.97;70.51;102553.41;5076247;27;45427;-61
2021/11/19 09:45:02;;;;;;;;;46.50;34.75;;;;;10.00;70.40;102550.63;5075222;27;45454;-61
2021/11/19 09:48:01;;;;;;;;;46.75;36.00;;;;;10.05;70.35;102556.47;5075511;27;45377;-61
2021/11/19 09:50:32;;;;;;;;;47.00;37.00;;;;;10.08;70.25;102556.28;5075051;27;45500;-61
2021/11/19 09:53:16;;;;;;;;;47.50;36.25;;;;;10.12;70.13;102551.72;5074349;27;45444;-61
2021/11/19 09:55:41;;;;;;;;;49.50;37.50;;;;;10.13;70.34;102556.88;5076528;27;45354;-61
2021/11/19 09:58:40;;;;;;;;;55.67;41.67;;;;;10.15;70.16;102552.41;5076931;27;45232;-61
2021/11/19 10:01:33;;;;;;;;;44.25;37.75;;;;;10.20;69.73;102545.13;5076664;27;46203;-61
2021/11/19 10:04:25;;;;;;;;;48.50;36.50;;;;;10.23;69.75;102544.94;5042670;27;45740;-61
2021/11/19 10:06:58;;;;;;;;;48.50;35.25;;;;;10.25;69.93;102543.09;5059446;27;45528;-61
2021/11/19 10:09:42;;;;;;;;;41.25;35.00;;;;;10.28;69.76;102541.22;5057154;28;45507;-61
2021/11/19 10:12:13;;;;;;;;;43.75;35.00;;;;;10.32;69.78;102534.88;5058695;27;46355;-61
2021/11/19 10:14:52;;;;;;;;;49.00;37.50;;;;;10.34;69.51;102535.63;5056911;27;46621;-61
2021/11/19 10:17:36;;;;;;;;;50.25;38.00;;;;;10.38;69.53;102531.91;5058107;27;45355;-61
2021/11/19 10:20:08;;;;;;;;;51.00;39.00;;;;;10.42;69.26;102532.59;5075111;27;45577;-61
2021/11/19 10:22:50;;;;;;;;;48.75;38.00;;;;;10.44;69.34;102536.00;5063412;27;45514;-61
2021/11/19 10:25:20;;;;;;;;;54.00;39.75;;;;;10.46;69.40;102534.13;5056035;27;45344;-61
2021/11/19 10:27:48;;;;;;;;;51.25;38.00;;;;;10.50;69.18;102533.88;5060099;27;45515;-61
2021/11/19 10:30:40;;;;;;;;;55.00;42.25;;;;;10.51;69.32;102532.94;5060191;27;45412;-61
2021/11/19 10:33:32;;;;;;;;;55.00;42.75;;;;;10.55;69.12;102530.97;5083281;27;46219;-61
2021/11/19 10:36:02;;;;;;;;;51.25;40.75;;;;;10.56;68.94;102534.47;5063678;27;46395;-61
2021/11/19 10:38:46;;;;;;;;;54.25;43.25;;;;;10.60;68.98;102526.31;5063641;27;45364;-61
2021/11/19 10:41:38;;;;;;;;;50.00;39.50;;;;;10.62;68.88;102529.72;5078131;27;45559;-61
2021/11/19 10:44:32;;;;;;;;;47.25;37.50;;;;;10.66;68.95;102530.38;5068066;27;46702;-61
2021/11/19 10:47:20;;;;;;;;;50.75;38.75;;;;;10.71;69.15;102522.22;5082020;27;45315;-61
2021/11/19 10:49:55;;;;;;;;;51.00;39.75;;;;;10.74;68.97;102516.81;5082900;27;45389;-61
2021/11/19 10:52:27;;;;;;;;;54.50;42.50;;;;;10.78;68.78;102520.94;5059235;27;45482;-61
2021/11/19 10:55:16;;;;;;;;;47.00;37.00;;;;;10.84;68.92;102524.06;5077276;27;45611;-61
2021/11/19 10:58:18;;;;;;;;;47.25;37.75;;;;;10.87;69.14;102516.94;5075983;27;46033;-61
2021/11/19 11:01:16;;;;;;;;;53.25;42.00;;;;;10.92;68.44;102517.50;5063506;27;45539;-61
2021/11/19 11:03:55;;;;;;;;;50.25;40.75;;;;;10.94;68.43;102513.84;5046310;27;45562;-61
2021/11/19 11:06:38;;;;;;;;;52.50;42.00;;;;;10.98;68.35;102517.16;5059013;27;46263;-61
2021/11/19 11:09:19;;;;;;;;;55.50;41.50;;;;;10.99;68.33;102514.44;5079894;27;46938;-61
2021/11/19 11:11:44;;;;;;;;;55.25;42.50;;;;;11.04;67.55;102514.16;5061663;27;45458;-61
2021/11/19 11:14:09;;;;;;;;;55.25;42.25;;;;;11.08;68.26;102507.78;5067035;27;55714;-61
2021/11/19 11:16:42;;;;;;;;;50.00;41.00;;;;;11.11;67.73;102510.25;5079897;27;72825;-61
2021/11/19 11:19:10;;;;;;;;;56.75;41.50;;;;;11.14;67.47;102514.47;5089488;27;45454;-61
2021/11/19 11:21:52;;;;;;;;;49.50;40.25;;;;;11.14;67.79;102502.13;5081151;27;45437;-61
2021/11/19 11:24:19;;;;;;;;;52.00;41.25;;;;;11.19;67.73;102508.91;5061585;27;45362;-61
2021/11/19 11:26:49;;;;;;;;;54.50;43.50;;;;;11.22;67.62;102501.72;5076886;27;46650;-61
2021/11/19 11:29:18;;;;;;;;;54.25;43.75;;;;;11.25;67.53;102505.91;5058535;27;45474;-61
2021/11/19 11:32:05;;;;;;;;;52.00;40.50;;;;;11.28;66.98;102489.94;5080654;27;45837;-61
2021/11/19 11:34:42;;;;;;;;;50.25;41.25;;;;;11.33;67.51;102493.16;5077031;27;45414;-60
2021/11/19 11:37:16;;;;;;;;;50.75;41.00;;;;;11.35;67.46;102493.91;5076653;27;47042;-61